»·PEaware :: UAL809 KSFO-KSNA

UAL809 :: KSFO-KSNA

FLIGHT INFORMATION

Flight Status: Arrived
Operator:
United Airlines
More flights by this operator :: More flights under this callsign
Pilot: Henderson P. (1210)
Aircraft: AIRBUS A319
(A319)
More flights by this aircraft type
Origin: KSFO San Francisco Intl
United States
Destination: KSNA John Wayne-Orange Co
United States
More flights between these airports :: More routes between these airports
Route: OFFSH2 MCKEY TILLT TILLT2
File this flight plan on PilotEdge
Remarks:
Altitude:
(Current/Filed)
39,000ft
Speed:
(Current/Filed)
446kts
Departed: 08-May-19 12:57 PM
Arrived: 08-May-19 02:03 PM
Distance/Time
Traveled:
323nm/1:05
Distance/Time
To Go:
Arrived

Flight Plot

Page will automatically refresh every two minutes.

Flight plan parsing failed; only flown route is shown


Map Options




Map Legend


Flown Route
Filed Route
Departure Airport
Arrival Airport
Navaid (VOR, NDB)
Fix

Horizontal Profiles

Position Reports

Time Latitude Longitude Heading Altitude Ground
Speed
08-May-19 11:26 37.618509 -122.384036 292 27ft 0kts
08-May-19 11:27 37.618509 -122.384036 292 27ft 0kts
08-May-19 11:28 37.618509 -122.384036 292 27ft 0kts
08-May-19 11:29 37.618509 -122.384036 292 27ft 0kts
08-May-19 11:30 37.618509 -122.384036 292 27ft 0kts
08-May-19 11:31 37.618509 -122.384036 292 27ft 0kts
08-May-19 11:32 37.618509 -122.384036 292 27ft 0kts
08-May-19 11:33 37.618509 -122.384036 292 27ft 0kts
08-May-19 11:34 37.618509 -122.384036 292 27ft 0kts
08-May-19 11:35 37.618509 -122.384036 292 27ft 0kts
08-May-19 11:36 37.618509 -122.384036 292 27ft 0kts
08-May-19 11:37 37.618509 -122.384036 292 27ft 0kts
08-May-19 11:38 37.618509 -122.384036 292 27ft 0kts
08-May-19 11:39 37.618509 -122.384036 292 27ft 0kts
08-May-19 11:40 37.618509 -122.384036 292 27ft 0kts
08-May-19 11:41 37.618509 -122.384036 292 27ft 0kts
08-May-19 11:42 37.618509 -122.384036 292 27ft 0kts
08-May-19 11:43 37.618509 -122.384036 292 27ft 0kts
08-May-19 11:44 37.618509 -122.384036 292 27ft 0kts
08-May-19 11:45 37.618509 -122.384036 292 27ft 0kts
08-May-19 11:46 37.618509 -122.384036 292 27ft 0kts
08-May-19 11:47 37.618509 -122.384036 292 27ft 0kts
08-May-19 11:48 37.618509 -122.384036 292 27ft 0kts
08-May-19 11:49 37.618509 -122.384036 292 27ft 0kts
08-May-19 11:50 37.618509 -122.384036 292 27ft 0kts
08-May-19 11:51 37.618509 -122.384036 292 27ft 0kts
08-May-19 11:52 37.618509 -122.384036 292 27ft 0kts
08-May-19 11:53 37.618509 -122.384036 292 27ft 0kts
08-May-19 11:54 37.618509 -122.384036 292 27ft 0kts
08-May-19 11:55 37.618509 -122.384036 292 27ft 0kts
08-May-19 11:56 37.618509 -122.384036 292 27ft 0kts
08-May-19 11:57 37.618509 -122.384036 292 27ft 0kts
08-May-19 11:58 37.618509 -122.384036 292 27ft 0kts
08-May-19 11:59 37.618509 -122.384036 292 27ft 0kts
08-May-19 12:00 37.618509 -122.384036 292 27ft 0kts
08-May-19 12:01 37.618509 -122.384036 292 27ft 0kts
08-May-19 12:02 37.618509 -122.384036 292 27ft 0kts
08-May-19 12:03 37.618509 -122.384036 292 27ft 0kts
08-May-19 12:04 37.618509 -122.384036 292 27ft 0kts
08-May-19 12:05 37.618509 -122.384036 292 27ft 0kts
08-May-19 12:06 37.618509 -122.384036 292 27ft 0kts
08-May-19 12:07 37.618509 -122.384036 292 27ft 0kts
08-May-19 12:08 37.618509 -122.384036 292 27ft 0kts
08-May-19 12:09 37.618509 -122.384036 292 27ft 0kts
08-May-19 12:10 37.618509 -122.384036 292 27ft 0kts
08-May-19 12:11 37.618509 -122.384036 292 27ft 0kts
08-May-19 12:12 37.618509 -122.384036 292 27ft 0kts
08-May-19 12:13 37.618509 -122.384036 292 27ft 0kts
08-May-19 12:14 37.618509 -122.384036 292 27ft 0kts
08-May-19 12:15 37.618509 -122.384036 292 27ft 0kts
08-May-19 12:16 37.618509 -122.384036 292 27ft 0kts
08-May-19 12:17 37.618509 -122.384036 292 27ft 0kts
08-May-19 12:18 37.618509 -122.384036 292 27ft 0kts
08-May-19 12:19 37.618509 -122.384036 292 27ft 0kts
08-May-19 12:20 37.618509 -122.384036 292 27ft 0kts
08-May-19 12:21 37.618509 -122.384036 292 27ft 0kts
08-May-19 12:22 37.618509 -122.384036 292 27ft 0kts
08-May-19 12:23 37.618509 -122.384036 292 27ft 0kts
08-May-19 12:24 37.618509 -122.384036 292 27ft 0kts
08-May-19 12:25 37.618509 -122.384036 292 27ft 0kts
08-May-19 12:26 37.618509 -122.384036 292 27ft 0kts
08-May-19 12:27 37.618509 -122.384036 292 27ft 0kts
08-May-19 12:28 37.618509 -122.384036 292 27ft 0kts
08-May-19 12:29 37.618509 -122.384036 292 27ft 0kts
08-May-19 12:30 37.618509 -122.384036 292 27ft 0kts
08-May-19 12:31 37.618509 -122.384036 292 27ft 0kts
08-May-19 12:32 37.618509 -122.384036 292 27ft 0kts
08-May-19 12:33 37.618509 -122.384036 292 27ft 0kts
08-May-19 12:34 37.618509 -122.384036 292 27ft 0kts
08-May-19 12:35 37.618509 -122.384036 292 27ft 0kts
08-May-19 12:36 37.618340 -122.383660 320 27ft 2kts
08-May-19 12:37 37.618063 -122.383695 49 27ft 0kts
08-May-19 12:38 37.618064 -122.383694 49 27ft 0kts
08-May-19 12:39 37.618086 -122.383661 49 27ft 2kts
08-May-19 12:40 37.619234 -122.382741 28 27ft 1kts
08-May-19 12:41 37.619285 -122.382707 27 27ft 0kts
08-May-19 12:42 37.619286 -122.382706 27 27ft 0kts
08-May-19 12:43 37.619287 -122.382705 27 27ft 0kts
08-May-19 12:44 37.619688 -122.382196 85 27ft 9kts
08-May-19 12:45 37.615912 -122.380108 208 27ft 20kts
08-May-19 12:46 37.610449 -122.383753 212 27ft 23kts
08-May-19 12:47 37.608468 -122.383765 117 27ft 0kts
08-May-19 12:48 37.608468 -122.383764 117 27ft 0kts
08-May-19 12:49 37.608467 -122.383762 117 27ft 0kts
08-May-19 12:50 37.608466 -122.383760 117 27ft 0kts
08-May-19 12:51 37.608465 -122.383758 117 27ft 0kts
08-May-19 12:52 37.608465 -122.383757 117 27ft 0kts
08-May-19 12:53 37.608464 -122.383755 117 27ft 0kts
08-May-19 12:54 37.608436 -122.383686 117 27ft 3kts
08-May-19 12:55 37.608184 -122.382729 28 27ft 0kts
08-May-19 12:56 37.611009 -122.380853 27 27ft 84kts
08-May-19 12:57 37.647693 -122.365966 0 2178ft 142kts
08-May-19 12:58 37.692194 -122.363295 0 4338ft 188kts
08-May-19 12:59 37.719547 -122.419764 246 7032ft 263kts
08-May-19 13:00 37.656222 -122.479771 216 10429ft 304kts
08-May-19 13:01 37.580728 -122.551459 218 12735ft 370kts
08-May-19 13:02 37.492161 -122.635171 218 14669ft 421kts
08-May-19 13:03 37.394224 -122.720093 200 17357ft 438kts
08-May-19 13:04 37.278221 -122.684947 151 19708ft 454kts
08-May-19 13:05 37.155089 -122.640732 167 21777ft 469kts
08-May-19 13:06 37.028059 -122.594506 164 23565ft 482kts
08-May-19 13:07 36.896284 -122.555080 169 25121ft 492kts
08-May-19 13:08 36.760842 -122.519855 169 26454ft 502kts
08-May-19 13:09 36.624591 -122.484687 169 27942ft 498kts
08-May-19 13:10 36.488853 -122.449660 169 28438ft 497kts
08-May-19 13:11 36.373001 -122.363908 128 28982ft 497kts
08-May-19 13:12 36.285045 -122.230981 130 29606ft 499kts
08-May-19 13:13 36.195152 -122.101849 129 31453ft 492kts
08-May-19 13:14 36.106915 -121.973706 129 33273ft 486kts
08-May-19 13:15 36.019696 -121.847682 129 34959ft 480kts
08-May-19 13:16 35.932710 -121.722846 129 36380ft 477kts
08-May-19 13:17 35.846756 -121.599567 129 37666ft 474kts
08-May-19 13:18 35.760674 -121.476703 129 38712ft 472kts
08-May-19 13:19 35.674661 -121.354441 129 39029ft 472kts
08-May-19 13:20 35.596234 -121.243275 129 39033ft 473kts
08-May-19 13:21 35.520124 -121.135705 129 39034ft 473kts
08-May-19 13:23 35.448203 -121.002403 123 38977ft 471kts
08-May-19 13:24 35.352499 -120.891612 139 38989ft 475kts
08-May-19 13:25 35.265982 -120.798433 137 39053ft 476kts
08-May-19 13:26 35.185532 -120.711850 138 39040ft 477kts
08-May-19 13:27 35.103044 -120.623444 137 39011ft 476kts
08-May-19 13:28 34.999679 -120.523791 146 39023ft 472kts
08-May-19 13:29 34.904509 -120.447987 146 39032ft 468kts
08-May-19 13:30 34.795299 -120.359277 146 39075ft 477kts
08-May-19 13:31 34.684697 -120.270388 146 39079ft 477kts
08-May-19 13:32 34.578251 -120.185221 147 39001ft 475kts
08-May-19 13:33 34.474379 -120.102291 147 37986ft 473kts
08-May-19 13:34 34.365185 -120.015494 147 36336ft 466kts
08-May-19 13:35 34.257112 -119.929720 147 34602ft 469kts
08-May-19 13:36 34.146804 -119.842539 147 32621ft 478kts
08-May-19 13:37 34.048357 -119.736275 120 30490ft 483kts
08-May-19 13:38 33.991468 -119.617962 119 28565ft 488kts
08-May-19 13:39 33.919885 -119.477548 119 25991ft 494kts
08-May-19 13:40 33.853371 -119.343108 118 23329ft 440kts
08-May-19 13:41 33.793472 -119.220925 118 21313ft 416kts
08-May-19 13:42 33.735382 -119.103734 118 19105ft 399kts
08-May-19 13:43 33.679140 -118.990486 118 16998ft 390kts
08-May-19 13:43 33.633745 -118.899184 119 15318ft 374kts
08-May-19 13:45 33.572973 -118.775332 111 12998ft 359kts
08-May-19 13:46 33.556045 -118.680184 97 11404ft 350kts
08-May-19 13:46 33.541888 -118.589926 99 10726ft 309kts
08-May-19 13:48 33.523284 -118.475753 98 9005ft 295kts
08-May-19 13:48 33.519754 -118.396216 88 7881ft 281kts
08-May-19 13:50 33.525014 -118.306702 67 6663ft 273kts
08-May-19 13:51 33.551405 -118.228742 68 5823ft 245kts
08-May-19 13:51 33.566244 -118.182076 65 5011ft 226kts
08-May-19 13:53 33.603616 -118.113140 56 4991ft 201kts
08-May-19 13:53 33.628627 -118.068194 55 4998ft 201kts
08-May-19 13:54 33.659462 -118.012767 55 5004ft 201kts
08-May-19 13:55 33.692214 -117.966634 45 4324ft 184kts
08-May-19 13:56 33.730754 -117.925549 28 2991ft 184kts
08-May-19 13:57 33.768994 -117.900043 27 2130ft 143kts
08-May-19 13:58 33.770919 -117.861601 117 2143ft 126kts
08-May-19 13:59 33.748945 -117.834516 172 1335ft 131kts
08-May-19 14:00 33.715672 -117.843630 206 876ft 124kts
08-May-19 14:01 33.685148 -117.862903 208 185ft 122kts
08-May-19 14:02 33.670386 -117.872162 198 70ft 20kts
08-May-19 14:03 33.669188 -117.870875 51 70ft 10kts
08-May-19 14:04 33.672792 -117.867624 43 70ft 17kts
08-May-19 14:05 33.676896 -117.864709 25 70ft 16kts
08-May-19 14:06 33.679428 -117.862624 116 70ft 5kts
08-May-19 14:07 33.679311 -117.862354 117 70ft 0kts
08-May-19 14:08 33.679311 -117.862354 117 70ft 0kts
08-May-19 14:09 33.679311 -117.862354 117 70ft 0kts
08-May-19 14:10 33.679311 -117.862354 117 70ft 0kts
08-May-19 14:11 33.679311 -117.862354 117 70ft 0kts
08-May-19 14:12 33.679311 -117.862354 117 70ft 0kts
08-May-19 14:13 33.679311 -117.862354 117 70ft 0kts
08-May-19 14:14 33.679311 -117.862354 117 70ft 0kts
08-May-19 14:15 33.679311 -117.862354 117 70ft 0kts
08-May-19 14:16 33.679311 -117.862354 117 70ft 0kts

Navigation Log

Ident Type
Flight plan parsing failed, navigation log unavailable